sensor_id;sensor_type;location;lat;lon;timestamp;P1;durP1;ratioP1;P2;durP2;ratioP2
26908;SDS011;14477;51.038;4.588;2022-10-31T00:02:24;5.85;;;3.50;;
26908;SDS011;14477;51.038;4.588;2022-10-31T00:04:49;5.47;;;3.80;;
26908;SDS011;14477;51.038;4.588;2022-10-31T00:07:15;5.80;;;3.60;;
26908;SDS011;14477;51.038;4.588;2022-10-31T00:09:41;5.50;;;3.60;;
26908;SDS011;14477;51.038;4.588;2022-10-31T00:12:06;5.70;;;3.43;;
26908;SDS011;14477;51.038;4.588;2022-10-31T00:14:32;6.38;;;3.72;;
26908;SDS011;14477;51.038;4.588;2022-10-31T00:16:57;5.50;;;3.60;;
26908;SDS011;14477;51.038;4.588;2022-10-31T00:19:23;7.05;;;3.92;;
26908;SDS011;14477;51.038;4.588;2022-10-31T00:21:51;5.77;;;3.80;;
26908;SDS011;14477;51.038;4.588;2022-10-31T00:24:16;5.35;;;3.75;;
26908;SDS011;14477;51.038;4.588;2022-10-31T00:26:42;5.27;;;3.40;;
26908;SDS011;14477;51.038;4.588;2022-10-31T00:29:07;5.95;;;3.80;;
26908;SDS011;14477;51.038;4.588;2022-10-31T00:31:33;5.30;;;3.63;;
26908;SDS011;14477;51.038;4.588;2022-10-31T00:33:59;4.80;;;3.20;;
26908;SDS011;14477;51.038;4.588;2022-10-31T00:36:25;6.33;;;3.53;;
26908;SDS011;14477;51.038;4.588;2022-10-31T00:38:50;4.23;;;3.03;;
26908;SDS011;14477;51.038;4.588;2022-10-31T00:41:16;5.28;;;3.42;;
26908;SDS011;14477;51.038;4.588;2022-10-31T00:43:42;5.65;;;3.58;;
26908;SDS011;14477;51.038;4.588;2022-10-31T00:46:09;8.23;;;3.57;;
26908;SDS011;14477;51.038;4.588;2022-10-31T00:48:35;5.53;;;3.53;;
26908;SDS011;14477;51.038;4.588;2022-10-31T00:51:00;6.25;;;3.42;;
26908;SDS011;14477;51.038;4.588;2022-10-31T00:53:26;5.30;;;3.33;;
26908;SDS011;14477;51.038;4.588;2022-10-31T00:55:52;6.63;;;3.50;;
26908;SDS011;14477;51.038;4.588;2022-10-31T00:58:17;5.53;;;3.40;;
26908;SDS011;14477;51.038;4.588;2022-10-31T01:00:43;4.85;;;3.17;;
26908;SDS011;14477;51.038;4.588;2022-10-31T01:03:09;4.60;;;3.23;;
26908;SDS011;14477;51.038;4.588;2022-10-31T01:05:34;5.03;;;3.40;;
26908;SDS011;14477;51.038;4.588;2022-10-31T01:08:00;5.85;;;3.35;;
26908;SDS011;14477;51.038;4.588;2022-10-31T01:10:26;4.57;;;3.03;;
26908;SDS011;14477;51.038;4.588;2022-10-31T01:12:51;5.97;;;3.20;;
26908;SDS011;14477;51.038;4.588;2022-10-31T01:15:18;4.27;;;2.60;;
26908;SDS011;14477;51.038;4.588;2022-10-31T01:17:47;6.47;;;2.90;;
26908;SDS011;14477;51.038;4.588;2022-10-31T01:20:13;4.28;;;2.90;;
26908;SDS011;14477;51.038;4.588;2022-10-31T01:22:40;5.45;;;3.05;;
26908;SDS011;14477;51.038;4.588;2022-10-31T01:25:06;4.33;;;3.03;;
26908;SDS011;14477;51.038;4.588;2022-10-31T01:27:33;4.53;;;2.80;;
26908;SDS011;14477;51.038;4.588;2022-10-31T01:29:59;4.70;;;2.77;;
26908;SDS011;14477;51.038;4.588;2022-10-31T01:32:24;5.78;;;2.92;;
26908;SDS011;14477;51.038;4.588;2022-10-31T01:34:53;5.97;;;2.90;;
26908;SDS011;14477;51.038;4.588;2022-10-31T01:37:19;4.80;;;2.70;;
26908;SDS011;14477;51.038;4.588;2022-10-31T01:39:45;6.18;;;2.92;;
26908;SDS011;14477;51.038;4.588;2022-10-31T01:42:15;4.33;;;2.80;;
26908;SDS011;14477;51.038;4.588;2022-10-31T01:44:48;4.10;;;2.65;;
26908;SDS011;14477;51.038;4.588;2022-10-31T01:47:32;3.88;;;2.53;;
26908;SDS011;14477;51.038;4.588;2022-10-31T01:50:04;4.75;;;2.63;;
26908;SDS011;14477;51.038;4.588;2022-10-31T01:52:37;4.00;;;2.72;;
26908;SDS011;14477;51.038;4.588;2022-10-31T01:55:09;4.10;;;2.70;;
26908;SDS011;14477;51.038;4.588;2022-10-31T01:57:40;3.70;;;2.25;;
26908;SDS011;14477;51.038;4.588;2022-10-31T02:00:10;3.67;;;2.72;;
26908;SDS011;14477;51.038;4.588;2022-10-31T02:02:36;3.95;;;2.42;;
26908;SDS011;14477;51.038;4.588;2022-10-31T02:05:04;4.53;;;2.67;;
26908;SDS011;14477;51.038;4.588;2022-10-31T02:08:15;4.88;;;2.70;;
26908;SDS011;14477;51.038;4.588;2022-10-31T02:10:22;3.60;;;2.28;;
26908;SDS011;14477;51.038;4.588;2022-10-31T02:12:50;3.88;;;2.60;;
26908;SDS011;14477;51.038;4.588;2022-10-31T02:15:18;3.35;;;2.28;;
26908;SDS011;14477;51.038;4.588;2022-10-31T02:17:44;4.03;;;2.50;;
26908;SDS011;14477;51.038;4.588;2022-10-31T02:28:25;3.13;;;2.33;;
26908;SDS011;14477;51.038;4.588;2022-10-31T02:34:19;2.95;;;2.25;;
26908;SDS011;14477;51.038;4.588;2022-10-31T02:37:33;2.65;;;2.03;;
26908;SDS011;14477;51.038;4.588;2022-10-31T02:40:05;2.63;;;1.93;;
26908;SDS011;14477;51.038;4.588;2022-10-31T02:48:15;2.97;;;2.20;;
26908;SDS011;14477;51.038;4.588;2022-10-31T02:50:48;5.03;;;2.17;;
26908;SDS011;14477;51.038;4.588;2022-10-31T02:53:19;2.87;;;1.80;;
26908;SDS011;14477;51.038;4.588;2022-10-31T02:55:47;3.30;;;2.20;;
26908;SDS011;14477;51.038;4.588;2022-10-31T02:58:22;3.60;;;2.00;;
26908;SDS011;14477;51.038;4.588;2022-10-31T03:00:56;3.20;;;1.83;;
26908;SDS011;14477;51.038;4.588;2022-10-31T03:06:30;3.10;;;2.03;;
26908;SDS011;14477;51.038;4.588;2022-10-31T03:11:46;2.97;;;1.88;;
26908;SDS011;14477;51.038;4.588;2022-10-31T03:14:24;3.07;;;2.13;;
26908;SDS011;14477;51.038;4.588;2022-10-31T03:16:57;3.05;;;2.17;;
26908;SDS011;14477;51.038;4.588;2022-10-31T03:19:32;3.20;;;2.22;;
26908;SDS011;14477;51.038;4.588;2022-10-31T03:22:27;3.38;;;2.03;;
26908;SDS011;14477;51.038;4.588;2022-10-31T03:24:53;3.22;;;1.83;;
26908;SDS011;14477;51.038;4.588;2022-10-31T03:27:22;3.00;;;2.00;;
26908;SDS011;14477;51.038;4.588;2022-10-31T03:29:50;3.45;;;2.08;;
26908;SDS011;14477;51.038;4.588;2022-10-31T03:32:20;3.97;;;2.05;;
26908;SDS011;14477;51.038;4.588;2022-10-31T03:34:53;4.65;;;2.15;;
26908;SDS011;14477;51.038;4.588;2022-10-31T03:37:22;5.00;;;2.50;;
26908;SDS011;14477;51.038;4.588;2022-10-31T03:39:50;3.77;;;2.20;;
26908;SDS011;14477;51.038;4.588;2022-10-31T03:42:20;3.97;;;2.17;;
26908;SDS011;14477;51.038;4.588;2022-10-31T03:44:51;3.75;;;2.28;;
26908;SDS011;14477;51.038;4.588;2022-10-31T03:47:22;3.70;;;2.22;;
26908;SDS011;14477;51.038;4.588;2022-10-31T03:49:48;3.45;;;2.15;;
26908;SDS011;14477;51.038;4.588;2022-10-31T03:52:28;3.97;;;2.03;;
26908;SDS011;14477;51.038;4.588;2022-10-31T03:57:39;2.97;;;2.20;;
26908;SDS011;14477;51.038;4.588;2022-10-31T04:00:13;3.72;;;2.00;;
26908;SDS011;14477;51.038;4.588;2022-10-31T04:02:42;5.30;;;2.40;;
26908;SDS011;14477;51.038;4.588;2022-10-31T04:05:12;4.30;;;2.10;;
26908;SDS011;14477;51.038;4.588;2022-10-31T04:07:41;3.85;;;2.05;;
26908;SDS011;14477;51.038;4.588;2022-10-31T04:10:10;3.30;;;2.25;;
26908;SDS011;14477;51.038;4.588;2022-10-31T04:12:39;3.53;;;2.22;;
26908;SDS011;14477;51.038;4.588;2022-10-31T04:15:07;2.75;;;1.90;;
26908;SDS011;14477;51.038;4.588;2022-10-31T04:17:35;3.33;;;2.13;;
26908;SDS011;14477;51.038;4.588;2022-10-31T04:20:04;3.30;;;2.00;;
26908;SDS011;14477;51.038;4.588;2022-10-31T04:22:30;3.28;;;2.28;;
26908;SDS011;14477;51.038;4.588;2022-10-31T04:24:56;4.03;;;2.10;;
26908;SDS011;14477;51.038;4.588;2022-10-31T04:27:21;3.17;;;2.03;;
26908;SDS011;14477;51.038;4.588;2022-10-31T04:29:47;3.37;;;2.27;;
26908;SDS011;14477;51.038;4.588;2022-10-31T04:32:12;3.38;;;2.17;;
26908;SDS011;14477;51.038;4.588;2022-10-31T04:34:38;3.30;;;2.00;;
26908;SDS011;14477;51.038;4.588;2022-10-31T04:37:04;2.80;;;2.10;;
26908;SDS011;14477;51.038;4.588;2022-10-31T04:39:29;3.80;;;2.27;;
26908;SDS011;14477;51.038;4.588;2022-10-31T04:41:55;3.03;;;1.83;;
26908;SDS011;14477;51.038;4.588;2022-10-31T04:44:20;4.75;;;2.20;;
26908;SDS011;14477;51.038;4.588;2022-10-31T04:46:46;4.20;;;2.00;;
26908;SDS011;14477;51.038;4.588;2022-10-31T04:49:12;2.97;;;2.10;;
26908;SDS011;14477;51.038;4.588;2022-10-31T04:51:38;3.87;;;2.40;;
26908;SDS011;14477;51.038;4.588;2022-10-31T04:54:03;4.35;;;2.25;;
26908;SDS011;14477;51.038;4.588;2022-10-31T04:56:29;4.83;;;2.23;;
26908;SDS011;14477;51.038;4.588;2022-10-31T04:58:55;3.75;;;2.10;;
26908;SDS011;14477;51.038;4.588;2022-10-31T05:01:20;4.23;;;2.00;;
26908;SDS011;14477;51.038;4.588;2022-10-31T05:03:46;3.80;;;2.13;;
26908;SDS011;14477;51.038;4.588;2022-10-31T05:06:12;3.20;;;2.00;;
26908;SDS011;14477;51.038;4.588;2022-10-31T05:08:37;3.28;;;2.15;;
26908;SDS011;14477;51.038;4.588;2022-10-31T05:11:03;3.87;;;2.10;;
26908;SDS011;14477;51.038;4.588;2022-10-31T05:13:29;3.40;;;2.13;;
26908;SDS011;14477;51.038;4.588;2022-10-31T05:15:55;2.50;;;1.73;;
26908;SDS011;14477;51.038;4.588;2022-10-31T05:18:21;3.13;;;2.03;;
26908;SDS011;14477;51.038;4.588;2022-10-31T05:20:46;3.10;;;2.00;;
26908;SDS011;14477;51.038;4.588;2022-10-31T05:23:12;4.13;;;2.23;;
26908;SDS011;14477;51.038;4.588;2022-10-31T05:25:39;4.13;;;2.20;;
26908;SDS011;14477;51.038;4.588;2022-10-31T05:28:05;3.30;;;1.85;;
26908;SDS011;14477;51.038;4.588;2022-10-31T05:30:31;3.10;;;1.73;;
26908;SDS011;14477;51.038;4.588;2022-10-31T05:32:57;3.65;;;2.03;;
26908;SDS011;14477;51.038;4.588;2022-10-31T05:35:27;4.47;;;2.00;;
26908;SDS011;14477;51.038;4.588;2022-10-31T05:37:53;4.20;;;2.33;;
26908;SDS011;14477;51.038;4.588;2022-10-31T05:40:20;3.47;;;1.77;;
26908;SDS011;14477;51.038;4.588;2022-10-31T05:42:46;3.38;;;2.05;;
26908;SDS011;14477;51.038;4.588;2022-10-31T05:45:13;3.38;;;1.85;;
26908;SDS011;14477;51.038;4.588;2022-10-31T05:47:40;3.40;;;2.30;;
26908;SDS011;14477;51.038;4.588;2022-10-31T05:50:06;3.73;;;2.03;;
26908;SDS011;14477;51.038;4.588;2022-10-31T05:52:33;4.00;;;2.30;;
26908;SDS011;14477;51.038;4.588;2022-10-31T05:54:59;2.83;;;2.03;;
26908;SDS011;14477;51.038;4.588;2022-10-31T05:57:24;3.27;;;2.37;;
26908;SDS011;14477;51.038;4.588;2022-10-31T05:59:50;3.22;;;2.13;;
26908;SDS011;14477;51.038;4.588;2022-10-31T06:02:19;3.65;;;2.10;;
26908;SDS011;14477;51.038;4.588;2022-10-31T06:04:45;4.20;;;2.03;;
26908;SDS011;14477;51.038;4.588;2022-10-31T06:07:11;4.05;;;2.17;;
26908;SDS011;14477;51.038;4.588;2022-10-31T06:09:36;2.90;;;1.90;;
26908;SDS011;14477;51.038;4.588;2022-10-31T06:12:02;4.18;;;2.08;;
26908;SDS011;14477;51.038;4.588;2022-10-31T06:14:28;4.40;;;2.20;;
26908;SDS011;14477;51.038;4.588;2022-10-31T06:16:54;4.30;;;2.17;;
26908;SDS011;14477;51.038;4.588;2022-10-31T06:19:20;3.80;;;2.30;;
26908;SDS011;14477;51.038;4.588;2022-10-31T06:21:45;2.50;;;1.70;;
26908;SDS011;14477;51.038;4.588;2022-10-31T06:24:11;2.92;;;1.95;;
26908;SDS011;14477;51.038;4.588;2022-10-31T06:26:37;3.63;;;2.43;;
26908;SDS011;14477;51.038;4.588;2022-10-31T06:29:02;3.50;;;1.93;;
26908;SDS011;14477;51.038;4.588;2022-10-31T06:31:28;2.95;;;1.83;;
26908;SDS011;14477;51.038;4.588;2022-10-31T06:33:54;2.80;;;2.10;;
26908;SDS011;14477;51.038;4.588;2022-10-31T06:36:19;3.55;;;2.20;;
26908;SDS011;14477;51.038;4.588;2022-10-31T06:38:45;3.67;;;2.03;;
26908;SDS011;14477;51.038;4.588;2022-10-31T06:41:10;3.90;;;2.35;;
26908;SDS011;14477;51.038;4.588;2022-10-31T06:43:36;2.93;;;2.47;;
26908;SDS011;14477;51.038;4.588;2022-10-31T06:46:02;2.77;;;1.70;;
26908;SDS011;14477;51.038;4.588;2022-10-31T06:48:28;3.75;;;2.38;;
26908;SDS011;14477;51.038;4.588;2022-10-31T06:50:57;3.80;;;2.70;;
26908;SDS011;14477;51.038;4.588;2022-10-31T06:53:26;4.03;;;2.40;;
26908;SDS011;14477;51.038;4.588;2022-10-31T06:55:55;4.93;;;2.38;;
26908;SDS011;14477;51.038;4.588;2022-10-31T06:58:21;3.53;;;2.25;;
26908;SDS011;14477;51.038;4.588;2022-10-31T07:00:47;5.13;;;2.67;;
26908;SDS011;14477;51.038;4.588;2022-10-31T07:03:13;3.17;;;2.17;;
26908;SDS011;14477;51.038;4.588;2022-10-31T07:05:40;4.53;;;2.40;;
26908;SDS011;14477;51.038;4.588;2022-10-31T07:08:07;4.00;;;2.30;;
26908;SDS011;14477;51.038;4.588;2022-10-31T07:10:35;4.53;;;2.55;;
26908;SDS011;14477;51.038;4.588;2022-10-31T07:13:02;4.50;;;2.90;;
26908;SDS011;14477;51.038;4.588;2022-10-31T07:15:32;4.20;;;2.63;;
26908;SDS011;14477;51.038;4.588;2022-10-31T07:18:00;4.32;;;2.70;;
26908;SDS011;14477;51.038;4.588;2022-10-31T07:20:27;5.10;;;2.85;;
26908;SDS011;14477;51.038;4.588;2022-10-31T07:22:53;5.53;;;2.88;;
26908;SDS011;14477;51.038;4.588;2022-10-31T07:25:19;5.10;;;3.03;;
26908;SDS011;14477;51.038;4.588;2022-10-31T07:27:45;4.60;;;3.00;;
26908;SDS011;14477;51.038;4.588;2022-10-31T07:30:11;5.97;;;3.05;;
26908;SDS011;14477;51.038;4.588;2022-10-31T07:32:41;5.07;;;2.93;;
26908;SDS011;14477;51.038;4.588;2022-10-31T07:35:09;5.13;;;3.08;;
26908;SDS011;14477;51.038;4.588;2022-10-31T07:37:36;4.60;;;2.88;;
26908;SDS011;14477;51.038;4.588;2022-10-31T07:40:02;6.73;;;3.30;;
26908;SDS011;14477;51.038;4.588;2022-10-31T07:42:29;5.32;;;3.17;;
26908;SDS011;14477;51.038;4.588;2022-10-31T07:44:59;5.03;;;3.03;;
26908;SDS011;14477;51.038;4.588;2022-10-31T07:47:24;6.43;;;3.30;;
26908;SDS011;14477;51.038;4.588;2022-10-31T07:49:50;4.90;;;2.90;;
26908;SDS011;14477;51.038;4.588;2022-10-31T07:52:16;6.23;;;3.33;;
26908;SDS011;14477;51.038;4.588;2022-10-31T07:54:41;6.10;;;3.13;;
26908;SDS011;14477;51.038;4.588;2022-10-31T07:57:07;6.60;;;3.20;;
26908;SDS011;14477;51.038;4.588;2022-10-31T07:59:32;5.67;;;3.03;;
26908;SDS011;14477;51.038;4.588;2022-10-31T08:01:58;6.47;;;3.30;;
26908;SDS011;14477;51.038;4.588;2022-10-31T08:04:24;5.43;;;3.13;;
26908;SDS011;14477;51.038;4.588;2022-10-31T08:06:49;5.93;;;3.28;;
26908;SDS011;14477;51.038;4.588;2022-10-31T08:09:15;5.60;;;3.37;;
26908;SDS011;14477;51.038;4.588;2022-10-31T08:11:40;5.63;;;3.43;;
26908;SDS011;14477;51.038;4.588;2022-10-31T08:14:06;5.75;;;3.03;;
26908;SDS011;14477;51.038;4.588;2022-10-31T08:16:32;5.10;;;3.37;;
26908;SDS011;14477;51.038;4.588;2022-10-31T08:18:57;6.30;;;3.53;;
26908;SDS011;14477;51.038;4.588;2022-10-31T08:21:23;6.03;;;3.30;;
26908;SDS011;14477;51.038;4.588;2022-10-31T08:23:48;7.60;;;3.67;;
26908;SDS011;14477;51.038;4.588;2022-10-31T08:26:14;6.70;;;3.60;;
26908;SDS011;14477;51.038;4.588;2022-10-31T08:28:40;7.00;;;3.87;;
26908;SDS011;14477;51.038;4.588;2022-10-31T08:31:05;7.28;;;3.70;;
26908;SDS011;14477;51.038;4.588;2022-10-31T08:33:31;8.53;;;4.30;;
26908;SDS011;14477;51.038;4.588;2022-10-31T08:36:00;6.35;;;3.78;;
26908;SDS011;14477;51.038;4.588;2022-10-31T08:38:25;6.22;;;3.50;;
26908;SDS011;14477;51.038;4.588;2022-10-31T08:40:51;6.50;;;3.80;;
26908;SDS011;14477;51.038;4.588;2022-10-31T08:43:17;7.43;;;3.53;;
26908;SDS011;14477;51.038;4.588;2022-10-31T08:45:44;7.13;;;3.70;;
26908;SDS011;14477;51.038;4.588;2022-10-31T08:48:13;6.80;;;3.75;;
26908;SDS011;14477;51.038;4.588;2022-10-31T08:50:40;6.35;;;3.58;;
26908;SDS011;14477;51.038;4.588;2022-10-31T08:53:07;6.30;;;3.92;;
26908;SDS011;14477;51.038;4.588;2022-10-31T08:55:37;6.17;;;3.73;;
26908;SDS011;14477;51.038;4.588;2022-10-31T08:58:04;6.22;;;3.70;;
26908;SDS011;14477;51.038;4.588;2022-10-31T09:00:32;7.25;;;4.43;;
26908;SDS011;14477;51.038;4.588;2022-10-31T09:03:03;6.65;;;4.03;;
26908;SDS011;14477;51.038;4.588;2022-10-31T09:05:30;7.30;;;3.92;;
26908;SDS011;14477;51.038;4.588;2022-10-31T09:07:57;7.20;;;4.20;;
26908;SDS011;14477;51.038;4.588;2022-10-31T09:10:24;7.97;;;4.25;;
26908;SDS011;14477;51.038;4.588;2022-10-31T09:12:57;6.90;;;4.13;;
26908;SDS011;14477;51.038;4.588;2022-10-31T09:15:31;6.32;;;3.85;;
26908;SDS011;14477;51.038;4.588;2022-10-31T09:18:01;8.05;;;4.38;;
26908;SDS011;14477;51.038;4.588;2022-10-31T09:20:28;6.50;;;4.20;;
26908;SDS011;14477;51.038;4.588;2022-10-31T09:23:01;7.60;;;4.40;;
26908;SDS011;14477;51.038;4.588;2022-10-31T09:25:32;9.25;;;4.60;;
26908;SDS011;14477;51.038;4.588;2022-10-31T09:27:59;6.43;;;4.30;;
26908;SDS011;14477;51.038;4.588;2022-10-31T09:30:26;7.53;;;4.80;;
26908;SDS011;14477;51.038;4.588;2022-10-31T09:35:23;9.80;;;4.80;;
26908;SDS011;14477;51.038;4.588;2022-10-31T09:37:55;7.65;;;4.85;;
26908;SDS011;14477;51.038;4.588;2022-10-31T09:40:23;7.80;;;4.65;;
26908;SDS011;14477;51.038;4.588;2022-10-31T09:43:14;8.10;;;4.82;;
26908;SDS011;14477;51.038;4.588;2022-10-31T09:45:59;7.17;;;4.53;;
26908;SDS011;14477;51.038;4.588;2022-10-31T09:51:11;8.25;;;4.70;;
26908;SDS011;14477;51.038;4.588;2022-10-31T09:56:46;7.93;;;4.43;;
26908;SDS011;14477;51.038;4.588;2022-10-31T09:59:28;8.03;;;4.37;;
26908;SDS011;14477;51.038;4.588;2022-10-31T10:02:05;6.85;;;4.30;;
26908;SDS011;14477;51.038;4.588;2022-10-31T10:10:13;8.40;;;4.65;;
26908;SDS011;14477;51.038;4.588;2022-10-31T10:13:00;6.70;;;4.10;;
26908;SDS011;14477;51.038;4.588;2022-10-31T10:15:47;10.35;;;4.78;;
26908;SDS011;14477;51.038;4.588;2022-10-31T10:18:22;8.95;;;4.80;;
26908;SDS011;14477;51.038;4.588;2022-10-31T10:26:41;7.20;;;4.40;;
26908;SDS011;14477;51.038;4.588;2022-10-31T10:32:19;9.07;;;5.10;;
26908;SDS011;14477;51.038;4.588;2022-10-31T10:34:53;8.80;;;4.82;;
26908;SDS011;14477;51.038;4.588;2022-10-31T10:37:28;8.55;;;4.95;;
26908;SDS011;14477;51.038;4.588;2022-10-31T10:40:08;9.10;;;5.43;;
26908;SDS011;14477;51.038;4.588;2022-10-31T10:42:41;9.20;;;4.72;;
26908;SDS011;14477;51.038;4.588;2022-10-31T10:45:28;7.72;;;4.93;;
26908;SDS011;14477;51.038;4.588;2022-10-31T10:48:21;9.00;;;5.35;;
26908;SDS011;14477;51.038;4.588;2022-10-31T10:51:01;8.65;;;5.10;;
26908;SDS011;14477;51.038;4.588;2022-10-31T10:59:21;10.05;;;5.45;;
26908;SDS011;14477;51.038;4.588;2022-10-31T11:01:48;9.75;;;5.60;;
26908;SDS011;14477;51.038;4.588;2022-10-31T11:04:32;10.18;;;5.13;;
26908;SDS011;14477;51.038;4.588;2022-10-31T11:07:10;8.77;;;4.80;;
26908;SDS011;14477;51.038;4.588;2022-10-31T11:09:37;10.25;;;5.45;;
26908;SDS011;14477;51.038;4.588;2022-10-31T11:12:10;9.32;;;5.15;;
26908;SDS011;14477;51.038;4.588;2022-10-31T11:14:51;8.57;;;4.97;;
26908;SDS011;14477;51.038;4.588;2022-10-31T11:17:33;9.48;;;5.50;;
26908;SDS011;14477;51.038;4.588;2022-10-31T11:22:40;8.38;;;5.18;;
26908;SDS011;14477;51.038;4.588;2022-10-31T11:27:45;7.30;;;5.05;;
26908;SDS011;14477;51.038;4.588;2022-10-31T11:30:12;9.18;;;5.53;;
26908;SDS011;14477;51.038;4.588;2022-10-31T11:32:43;9.67;;;5.40;;
26908;SDS011;14477;51.038;4.588;2022-10-31T11:35:16;8.38;;;5.38;;
26908;SDS011;14477;51.038;4.588;2022-10-31T11:37:44;7.53;;;4.93;;
26908;SDS011;14477;51.038;4.588;2022-10-31T11:40:16;10.63;;;5.38;;
26908;SDS011;14477;51.038;4.588;2022-10-31T11:42:45;8.07;;;4.88;;
26908;SDS011;14477;51.038;4.588;2022-10-31T11:45:16;6.73;;;4.87;;
26908;SDS011;14477;51.038;4.588;2022-10-31T11:47:56;9.18;;;5.32;;
26908;SDS011;14477;51.038;4.588;2022-10-31T11:52:58;7.65;;;4.93;;
26908;SDS011;14477;51.038;4.588;2022-10-31T11:58:00;9.90;;;4.60;;
26908;SDS011;14477;51.038;4.588;2022-10-31T12:00:28;8.25;;;5.00;;
26908;SDS011;14477;51.038;4.588;2022-10-31T12:08:32;6.87;;;4.50;;
26908;SDS011;14477;51.038;4.588;2022-10-31T12:16:46;8.43;;;4.20;;
26908;SDS011;14477;51.038;4.588;2022-10-31T12:19:24;7.68;;;4.53;;
26908;SDS011;14477;51.038;4.588;2022-10-31T12:25:18;8.70;;;4.50;;
26908;SDS011;14477;51.038;4.588;2022-10-31T12:36:32;7.27;;;4.40;;
26908;SDS011;14477;51.038;4.588;2022-10-31T12:55:19;6.07;;;3.45;;
26908;SDS011;14477;51.038;4.588;2022-10-31T13:00:39;5.53;;;3.22;;
26908;SDS011;14477;51.038;4.588;2022-10-31T13:05:48;5.50;;;3.65;;
26908;SDS011;14477;51.038;4.588;2022-10-31T13:08:19;4.97;;;3.10;;
26908;SDS011;14477;51.038;4.588;2022-10-31T13:13:31;6.57;;;3.47;;
26908;SDS011;14477;51.038;4.588;2022-10-31T13:16:17;5.18;;;2.92;;
26908;SDS011;14477;51.038;4.588;2022-10-31T13:18:47;4.95;;;2.90;;
26908;SDS011;14477;51.038;4.588;2022-10-31T13:21:25;6.07;;;3.20;;
26908;SDS011;14477;51.038;4.588;2022-10-31T13:23:53;5.63;;;3.13;;
26908;SDS011;14477;51.038;4.588;2022-10-31T13:26:26;4.20;;;2.85;;
26908;SDS011;14477;51.038;4.588;2022-10-31T13:29:05;5.63;;;2.90;;
26908;SDS011;14477;51.038;4.588;2022-10-31T13:31:52;5.18;;;2.95;;
26908;SDS011;14477;51.038;4.588;2022-10-31T13:34:40;5.82;;;2.92;;
26908;SDS011;14477;51.038;4.588;2022-10-31T13:37:16;6.03;;;3.20;;
26908;SDS011;14477;51.038;4.588;2022-10-31T13:39:52;5.45;;;2.72;;
26908;SDS011;14477;51.038;4.588;2022-10-31T13:45:19;6.22;;;3.10;;
26908;SDS011;14477;51.038;4.588;2022-10-31T13:47:57;6.63;;;3.42;;
26908;SDS011;14477;51.038;4.588;2022-10-31T13:50:54;6.27;;;3.10;;
26908;SDS011;14477;51.038;4.588;2022-10-31T13:53:22;6.88;;;2.90;;
26908;SDS011;14477;51.038;4.588;2022-10-31T13:58:34;6.65;;;3.00;;
26908;SDS011;14477;51.038;4.588;2022-10-31T14:03:43;5.73;;;3.30;;
26908;SDS011;14477;51.038;4.588;2022-10-31T14:06:10;6.35;;;3.08;;
26908;SDS011;14477;51.038;4.588;2022-10-31T14:08:37;6.30;;;3.20;;
26908;SDS011;14477;51.038;4.588;2022-10-31T14:11:07;6.53;;;3.38;;
26908;SDS011;14477;51.038;4.588;2022-10-31T14:13:38;6.28;;;3.00;;
26908;SDS011;14477;51.038;4.588;2022-10-31T14:16:23;6.17;;;3.17;;
26908;SDS011;14477;51.038;4.588;2022-10-31T14:19:04;5.90;;;3.20;;
26908;SDS011;14477;51.038;4.588;2022-10-31T14:21:46;6.50;;;3.22;;
26908;SDS011;14477;51.038;4.588;2022-10-31T14:24:14;5.15;;;3.00;;
26908;SDS011;14477;51.038;4.588;2022-10-31T14:26:59;5.88;;;3.45;;
26908;SDS011;14477;51.038;4.588;2022-10-31T14:29:30;6.97;;;3.20;;
26908;SDS011;14477;51.038;4.588;2022-10-31T14:34:30;5.68;;;3.03;;
26908;SDS011;14477;51.038;4.588;2022-10-31T14:39:47;7.05;;;2.92;;
26908;SDS011;14477;51.038;4.588;2022-10-31T14:42:23;4.80;;;2.67;;
26908;SDS011;14477;51.038;4.588;2022-10-31T14:50:49;5.40;;;2.72;;
26908;SDS011;14477;51.038;4.588;2022-10-31T14:53:24;6.18;;;2.70;;
26908;SDS011;14477;51.038;4.588;2022-10-31T14:56:09;7.83;;;2.53;;
26908;SDS011;14477;51.038;4.588;2022-10-31T14:58:40;5.57;;;2.60;;
26908;SDS011;14477;51.038;4.588;2022-10-31T15:01:25;5.53;;;2.85;;
26908;SDS011;14477;51.038;4.588;2022-10-31T15:04:29;6.78;;;2.63;;
26908;SDS011;14477;51.038;4.588;2022-10-31T15:06:51;3.85;;;2.45;;
26908;SDS011;14477;51.038;4.588;2022-10-31T15:09:32;5.13;;;2.63;;
26908;SDS011;14477;51.038;4.588;2022-10-31T15:12:16;7.88;;;2.50;;
26908;SDS011;14477;51.038;4.588;2022-10-31T15:14:51;5.65;;;2.42;;
26908;SDS011;14477;51.038;4.588;2022-10-31T15:17:18;5.05;;;2.75;;
26908;SDS011;14477;51.038;4.588;2022-10-31T15:19:45;3.97;;;2.33;;
26908;SDS011;14477;51.038;4.588;2022-10-31T15:22:13;6.70;;;2.60;;
26908;SDS011;14477;51.038;4.588;2022-10-31T15:24:41;6.28;;;3.08;;
26908;SDS011;14477;51.038;4.588;2022-10-31T15:27:15;4.13;;;2.55;;
26908;SDS011;14477;51.038;4.588;2022-10-31T15:32:22;5.40;;;2.70;;
26908;SDS011;14477;51.038;4.588;2022-10-31T15:34:52;5.28;;;2.60;;
26908;SDS011;14477;51.038;4.588;2022-10-31T15:37:21;6.55;;;2.80;;
26908;SDS011;14477;51.038;4.588;2022-10-31T15:39:48;6.50;;;2.92;;
26908;SDS011;14477;51.038;4.588;2022-10-31T15:42:16;4.97;;;2.80;;
26908;SDS011;14477;51.038;4.588;2022-10-31T15:44:43;5.30;;;2.97;;
26908;SDS011;14477;51.038;4.588;2022-10-31T15:47:18;6.88;;;2.95;;
26908;SDS011;14477;51.038;4.588;2022-10-31T15:49:53;4.95;;;2.60;;
26908;SDS011;14477;51.038;4.588;2022-10-31T15:52:31;5.22;;;2.83;;
26908;SDS011;14477;51.038;4.588;2022-10-31T15:57:42;5.87;;;2.70;;
26908;SDS011;14477;51.038;4.588;2022-10-31T16:11:37;5.53;;;2.50;;
26908;SDS011;14477;51.038;4.588;2022-10-31T16:14:29;6.03;;;2.72;;
26908;SDS011;14477;51.038;4.588;2022-10-31T16:16:52;5.97;;;3.08;;
26908;SDS011;14477;51.038;4.588;2022-10-31T16:19:21;7.15;;;3.17;;
26908;SDS011;14477;51.038;4.588;2022-10-31T16:22:19;7.95;;;3.00;;
26908;SDS011;14477;51.038;4.588;2022-10-31T16:24:54;5.43;;;3.03;;
26908;SDS011;14477;51.038;4.588;2022-10-31T16:27:39;5.75;;;3.20;;
26908;SDS011;14477;51.038;4.588;2022-10-31T16:32:56;8.65;;;3.40;;
26908;SDS011;14477;51.038;4.588;2022-10-31T16:35:37;6.13;;;3.20;;
26908;SDS011;14477;51.038;4.588;2022-10-31T16:38:03;4.90;;;3.00;;
26908;SDS011;14477;51.038;4.588;2022-10-31T16:40:29;5.35;;;2.83;;
26908;SDS011;14477;51.038;4.588;2022-10-31T16:42:59;5.13;;;3.00;;
26908;SDS011;14477;51.038;4.588;2022-10-31T16:45:29;5.78;;;3.10;;
26908;SDS011;14477;51.038;4.588;2022-10-31T16:48:08;6.20;;;2.90;;
26908;SDS011;14477;51.038;4.588;2022-10-31T16:50:37;7.87;;;3.20;;
26908;SDS011;14477;51.038;4.588;2022-10-31T16:53:03;5.72;;;3.20;;
26908;SDS011;14477;51.038;4.588;2022-10-31T16:55:28;6.07;;;3.40;;
26908;SDS011;14477;51.038;4.588;2022-10-31T16:57:55;7.45;;;3.30;;
26908;SDS011;14477;51.038;4.588;2022-10-31T17:00:22;5.77;;;3.10;;
26908;SDS011;14477;51.038;4.588;2022-10-31T17:02:54;5.60;;;3.20;;
26908;SDS011;14477;51.038;4.588;2022-10-31T17:05:21;6.00;;;3.22;;
26908;SDS011;14477;51.038;4.588;2022-10-31T17:07:54;7.25;;;3.30;;
26908;SDS011;14477;51.038;4.588;2022-10-31T17:10:21;6.07;;;3.28;;
26908;SDS011;14477;51.038;4.588;2022-10-31T17:12:48;7.50;;;3.60;;
26908;SDS011;14477;51.038;4.588;2022-10-31T17:15:16;7.97;;;3.47;;
26908;SDS011;14477;51.038;4.588;2022-10-31T17:17:46;6.78;;;3.63;;
26908;SDS011;14477;51.038;4.588;2022-10-31T17:20:33;6.47;;;3.60;;
26908;SDS011;14477;51.038;4.588;2022-10-31T17:22:58;7.93;;;3.60;;
26908;SDS011;14477;51.038;4.588;2022-10-31T17:25:25;6.43;;;3.35;;
26908;SDS011;14477;51.038;4.588;2022-10-31T17:27:53;7.45;;;3.45;;
26908;SDS011;14477;51.038;4.588;2022-10-31T17:30:20;5.40;;;3.63;;
26908;SDS011;14477;51.038;4.588;2022-10-31T17:32:47;6.67;;;3.60;;
26908;SDS011;14477;51.038;4.588;2022-10-31T17:35:14;5.65;;;3.60;;
26908;SDS011;14477;51.038;4.588;2022-10-31T17:37:40;6.82;;;3.53;;